Time;durP1;ratioP1;P1;durP2;ratioP2;P2;SDS_P1;SDS_P2;PMS_P1;PMS_P2;Temp;Humidity;BMP_temperature;BMP_pressure;BME280_temperature;BME280_humidity;BME280_pressure;Samples;Min_cycle;Max_cycle;Signal;HPM_P1;HPM_P2
2022/01/25 00:08:24;;;;;;;;;;;12.60;93.90;;;;;;5052086;28;19925;-66
2022/01/25 00:27:07;;;;;;;;;;;12.90;93.80;;;;;;5091567;28;19932;-66
2022/01/25 00:29:55;;;;;;;;;;;12.50;93.70;;;;;;5091659;28;19924;-66
2022/01/25 00:32:21;;;;;;;;;;;12.70;93.80;;;;;;5091349;28;19924;-66
2022/01/25 00:34:46;;;;;;;;;;;12.80;93.90;;;;;;5091967;28;19930;-65
2022/01/25 00:37:12;;;;;;;;;;;12.60;93.80;;;;;;5091359;28;19967;-66
2022/01/25 00:39:38;;;;;;;;;;;12.50;93.70;;;;;;5092954;28;19969;-66
2022/01/25 00:42:04;;;;;;;;;;;12.80;93.80;;;;;;5093773;28;19924;-66
2022/01/25 00:44:35;;;;;;;;;;;12.80;93.80;;;;;;5094171;28;19924;-66
2022/01/25 00:47:01;;;;;;;;;;;12.90;93.70;;;;;;5113308;28;20048;-66
2022/01/25 00:49:29;;;;;;;;;;;12.60;93.60;;;;;;5114458;28;20016;-66
2022/01/25 00:56:55;;;;;;;;;;;12.70;93.60;;;;;;5113868;28;20007;-65
2022/01/25 00:59:22;;;;;;;;;;;12.90;93.60;;;;;;5114324;28;19924;-66
2022/01/25 01:01:48;;;;;;;;;;;12.90;93.60;;;;;;5114036;28;19924;-66
2022/01/25 01:04:14;;;;;;;;;;;12.80;93.60;;;;;;5114001;28;19924;-66
2022/01/25 01:06:42;;;;;;;;;;;12.80;93.60;;;;;;5114285;28;20019;-66
2022/01/25 01:09:09;;;;;;;;;;;12.80;93.60;;;;;;5113366;28;19923;-66
2022/01/25 01:11:41;;;;;;;;;;;;;;;;;;5113753;28;19963;-64
2022/01/25 01:17:09;;;;;;;;;;;12.70;93.60;;;;;;5116367;28;19931;-66
2022/01/25 01:43:56;;;;;;;;;;;12.60;93.40;;;;;;5108094;28;20003;-65
2022/01/25 01:48:29;;;;;;;;;;;12.50;93.40;;;;;;5117318;28;19920;-65
2022/01/25 01:50:57;;;;;;;;;;;12.40;93.40;;;;;;5117278;27;19924;-66
2022/01/25 01:53:23;;;;;;;;;;;12.60;93.40;;;;;;5116602;28;19920;-66
2022/01/25 01:55:49;;;;;;;;;;;12.50;93.30;;;;;;5117131;28;19935;-66
2022/01/25 01:58:15;;;;;;;;;;;12.60;93.30;;;;;;5117071;28;19928;-66
2022/01/25 02:00:40;;;;;;;;;;;;;;;;;;5117342;28;19928;-66
2022/01/25 02:03:06;;;;;;;;;;;12.70;93.40;;;;;;5117123;28;20368;-64
2022/01/25 02:05:32;;;;;;;;;;;12.70;93.40;;;;;;5117165;28;19926;-66
2022/01/25 02:07:57;;;;;;;;;;;12.90;93.50;;;;;;5117259;28;19927;-66
2022/01/25 02:10:23;;;;;;;;;;;;;;;;;;5116720;28;20384;-65
2022/01/25 02:12:51;;;;;;;;;;;;;;;;;;5117182;28;19924;-65
2022/01/25 02:15:17;;;;;;;;;;;12.70;93.40;;;;;;5116656;28;19971;-65
2022/01/25 02:22:56;;;;;;;;;;;12.60;93.30;;;;;;5116979;28;20339;-65
2022/01/25 02:25:21;;;;;;;;;;;12.80;93.40;;;;;;5116240;28;19931;-65
2022/01/25 02:27:47;;;;;;;;;;;12.90;93.40;;;;;;5115182;28;20389;-66
2022/01/25 02:30:13;;;;;;;;;;;12.70;93.40;;;;;;5115482;28;19930;-65
2022/01/25 02:32:39;;;;;;;;;;;;;;;;;;5116767;28;19924;-66
2022/01/25 02:35:04;;;;;;;;;;;;;;;;;;5116457;28;19928;-67
2022/01/25 02:37:31;;;;;;;;;;;12.60;93.30;;;;;;5116405;28;20281;-66
2022/01/25 02:39:57;;;;;;;;;;;12.60;93.30;;;;;;5116633;28;19923;-66
2022/01/25 02:42:23;;;;;;;;;;;12.80;93.40;;;;;;5116631;28;20041;-66
2022/01/25 02:44:49;;;;;;;;;;;12.50;93.30;;;;;;5116429;28;20289;-66
2022/01/25 02:49:59;;;;;;;;;;;12.80;93.30;;;;;;5116127;28;20007;-66
2022/01/25 02:52:25;;;;;;;;;;;;;;;;;;5116086;28;19982;-64
2022/01/25 02:54:50;;;;;;;;;;;12.50;93.20;;;;;;5115107;28;19924;-66
2022/01/25 02:57:16;;;;;;;;;;;12.80;93.30;;;;;;5115765;28;19924;-66
2022/01/25 02:59:42;;;;;;;;;;;12.70;93.30;;;;;;5116226;28;19924;-66
2022/01/25 03:02:07;;;;;;;;;;;12.70;93.30;;;;;;5115644;28;19930;-66
2022/01/25 03:04:33;;;;;;;;;;;12.70;93.30;;;;;;5116224;27;19931;-66
2022/01/25 03:06:59;;;;;;;;;;;12.40;93.20;;;;;;5115283;28;19928;-65
2022/01/25 03:09:24;;;;;;;;;;;12.70;93.30;;;;;;5116122;28;19924;-66
2022/01/25 03:11:54;;;;;;;;;;;12.70;93.30;;;;;;5116049;28;20276;-65
2022/01/25 03:14:22;;;;;;;;;;;12.70;93.30;;;;;;5115993;27;20018;-65
2022/01/25 03:17:09;;;;;;;;;;;12.80;93.30;;;;;;5115862;28;19923;-65
2022/01/25 03:22:16;;;;;;;;;;;12.70;93.30;;;;;;5114261;28;19923;-65
2022/01/25 03:24:41;;;;;;;;;;;12.60;93.30;;;;;;5115837;28;19924;-66
2022/01/25 03:27:07;;;;;;;;;;;12.60;93.20;;;;;;5115727;28;19973;-66
2022/01/25 03:29:32;;;;;;;;;;;12.50;93.20;;;;;;5114770;28;19924;-66
2022/01/25 03:31:58;;;;;;;;;;;12.70;93.20;;;;;;5115625;28;20011;-66
2022/01/25 03:34:24;;;;;;;;;;;12.90;93.30;;;;;;5115594;28;19978;-66
2022/01/25 03:36:49;;;;;;;;;;;12.60;93.20;;;;;;5115344;28;20006;-64
2022/01/25 03:39:15;;;;;;;;;;;;;;;;;;5114770;28;19923;-65
2022/01/25 03:41:41;;;;;;;;;;;12.30;93.20;;;;;;5115128;28;20011;-66
2022/01/25 03:44:07;;;;;;;;;;;;;;;;;;5115462;28;19924;-64
2022/01/25 03:52:06;;;;;;;;;;;12.50;93.20;;;;;;5092223;28;19963;-66
2022/01/25 03:54:32;;;;;;;;;;;12.50;93.20;;;;;;5093293;28;19931;-66
2022/01/25 03:56:57;;;;;;;;;;;12.60;93.20;;;;;;5092504;28;19924;-65
2022/01/25 03:59:23;;;;;;;;;;;12.60;93.20;;;;;;5075417;28;19924;-66
2022/01/25 04:01:49;;;;;;;;;;;12.60;93.20;;;;;;5091682;28;19944;-65
2022/01/25 04:04:18;;;;;;;;;;;12.50;93.30;;;;;;5092406;28;20018;-66
2022/01/25 04:06:48;;;;;;;;;;;12.60;93.30;;;;;;5091760;28;19920;-66
2022/01/25 04:09:14;;;;;;;;;;;12.60;93.20;;;;;;5092591;28;20361;-66
2022/01/25 04:11:40;;;;;;;;;;;12.40;93.20;;;;;;5092260;28;19928;-66
2022/01/25 04:14:05;;;;;;;;;;;12.70;93.30;;;;;;5092360;28;19924;-65
2022/01/25 04:16:59;;;;;;;;;;;;;;;;;;5091940;28;19924;-65
2022/01/25 04:27:30;;;;;;;;;;;12.70;93.30;;;;;;5108837;28;19931;-66
2022/01/25 04:29:55;;;;;;;;;;;12.70;93.30;;;;;;5114716;28;19924;-66
2022/01/25 04:32:33;;;;;;;;;;;12.40;93.20;;;;;;5114289;28;19924;-66
2022/01/25 04:35:24;;;;;;;;;;;12.40;93.20;;;;;;5114670;28;19928;-66
2022/01/25 04:48:55;;;;;;;;;;;12.60;93.20;;;;;;5114009;28;19931;-66
2022/01/25 04:54:06;;;;;;;;;;;12.70;93.20;;;;;;5118745;28;19931;-66
2022/01/25 04:57:00;;;;;;;;;;;12.50;93.20;;;;;;5118673;28;20014;-66
2022/01/25 04:59:29;;;;;;;;;;;12.60;93.20;;;;;;5118408;27;19927;-66
2022/01/25 05:02:01;;;;;;;;;;;12.40;93.10;;;;;;5118377;28;19923;-66
2022/01/25 05:04:32;;;;;;;;;;;12.40;93.10;;;;;;5118559;28;19969;-66
2022/01/25 05:07:07;;;;;;;;;;;12.40;93.10;;;;;;5118483;28;19971;-66
2022/01/25 05:09:35;;;;;;;;;;;12.50;93.20;;;;;;5116968;28;19924;-66
2022/01/25 05:12:02;;;;;;;;;;;12.50;93.20;;;;;;5118170;28;19931;-65
2022/01/25 05:14:34;;;;;;;;;;;12.60;93.20;;;;;;5117238;28;19924;-66
2022/01/25 05:17:00;;;;;;;;;;;12.50;93.20;;;;;;5117729;28;19997;-64
2022/01/25 05:22:18;;;;;;;;;;;12.50;93.20;;;;;;5116841;28;20400;-66
2022/01/25 05:24:44;;;;;;;;;;;12.50;93.20;;;;;;5118196;28;19924;-66
2022/01/25 05:27:11;;;;;;;;;;;12.50;93.20;;;;;;5118081;28;19942;-66
2022/01/25 05:29:37;;;;;;;;;;;12.40;93.10;;;;;;5117539;28;19923;-67
2022/01/25 05:32:02;;;;;;;;;;;12.50;93.10;;;;;;5117461;28;19923;-66
2022/01/25 05:34:28;;;;;;;;;;;12.50;93.10;;;;;;5116607;28;20385;-66
2022/01/25 05:36:54;;;;;;;;;;;12.70;93.20;;;;;;5117638;28;19924;-66
2022/01/25 05:39:27;;;;;;;;;;;12.50;93.20;;;;;;5117854;28;20011;-66
2022/01/25 05:41:57;;;;;;;;;;;12.50;93.20;;;;;;5117452;28;20014;-66
2022/01/25 05:44:27;;;;;;;;;;;12.60;93.20;;;;;;5117770;28;19946;-66
2022/01/25 05:49:24;;;;;;;;;;;12.50;93.20;;;;;;5117663;28;19928;-65
2022/01/25 05:51:50;;;;;;;;;;;12.40;93.20;;;;;;5117164;28;19977;-66
2022/01/25 05:54:15;;;;;;;;;;;12.20;93.10;;;;;;5117172;28;19977;-66
2022/01/25 05:56:41;;;;;;;;;;;12.60;93.20;;;;;;5117204;27;20397;-65
2022/01/25 05:59:06;;;;;;;;;;;12.40;93.10;;;;;;5116223;28;20014;-66
2022/01/25 06:01:34;;;;;;;;;;;12.40;93.10;;;;;;5116813;28;19924;-66
2022/01/25 06:04:00;;;;;;;;;;;12.70;93.20;;;;;;5116272;28;20022;-66
2022/01/25 06:06:25;;;;;;;;;;;12.50;93.10;;;;;;5117376;28;19970;-66
2022/01/25 06:08:51;;;;;;;;;;;12.50;93.10;;;;;;5117098;28;19924;-66
2022/01/25 06:11:17;;;;;;;;;;;12.60;93.10;;;;;;5116941;28;19924;-66
2022/01/25 06:13:42;;;;;;;;;;;12.40;93.10;;;;;;5116862;28;19920;-64
2022/01/25 06:16:08;;;;;;;;;;;12.30;93.00;;;;;;5116946;28;20361;-66
2022/01/25 06:18:33;;;;;;;;;;;12.20;93.00;;;;;;5116780;28;20426;-66
2022/01/25 06:20:59;;;;;;;;;;;12.50;93.10;;;;;;5116604;28;20018;-66
2022/01/25 06:23:25;;;;;;;;;;;12.50;93.10;;;;;;5117586;28;19959;-66
2022/01/25 06:25:50;;;;;;;;;;;12.30;93.10;;;;;;5116377;28;19946;-65
2022/01/25 06:28:17;;;;;;;;;;;12.70;93.20;;;;;;5116552;28;19924;-66
2022/01/25 06:30:44;;;;;;;;;;;12.50;93.20;;;;;;5099200;28;20018;-66
2022/01/25 06:33:10;;;;;;;;;;;;;;;;;;5096085;28;20427;-66
2022/01/25 06:35:36;;;;;;;;;;;12.50;92.80;;;;;;5101185;28;20381;-65
2022/01/25 06:38:02;;;;;;;;;;;;;;;;;;5116680;28;19969;-64
2022/01/25 06:40:28;;;;;;;;;;;12.30;93.10;;;;;;5116906;28;19930;-66
2022/01/25 06:42:54;;;;;;;;;;;12.50;93.10;;;;;;5115018;28;19930;-65
2022/01/25 06:45:21;;;;;;;;;;;12.50;93.10;;;;;;5116154;28;20006;-65
2022/01/25 06:47:48;;;;;;;;;;;12.50;93.10;;;;;;5116155;28;19949;-66
2022/01/25 06:50:14;;;;;;;;;;;12.40;93.10;;;;;;5116259;28;19931;-64
2022/01/25 06:52:41;;;;;;;;;;;12.30;93.00;;;;;;5116496;28;19924;-64
2022/01/25 06:55:07;;;;;;;;;;;12.50;93.10;;;;;;5116135;28;20368;-66
2022/01/25 06:57:33;;;;;;;;;;;12.50;93.10;;;;;;5115481;28;19931;-66
2022/01/25 06:59:58;;;;;;;;;;;12.50;93.10;;;;;;5115892;28;19927;-65
2022/01/25 07:02:24;;;;;;;;;;;;;;;;;;5115686;28;19985;-66
2022/01/25 07:04:50;;;;;;;;;;;12.40;93.10;;;;;;5115914;28;19954;-66
2022/01/25 07:07:16;;;;;;;;;;;12.40;93.10;;;;;;5114636;28;19927;-66
2022/01/25 07:09:41;;;;;;;;;;;12.30;93.10;;;;;;5115826;28;19924;-65
2022/01/25 07:12:07;;;;;;;;;;;12.60;93.20;;;;;;5115386;28;19924;-65
2022/01/25 07:14:33;;;;;;;;;;;12.30;93.10;;;;;;5115696;28;20273;-65
2022/01/25 07:16:59;;;;;;;;;;;12.30;93.10;;;;;;5113647;28;19927;-66
2022/01/25 07:19:25;;;;;;;;;;;12.60;93.10;;;;;;5115936;28;20278;-61
2022/01/25 07:21:51;;;;;;;;;;;12.30;93.00;;;;;;5107509;28;20443;-63
2022/01/25 07:24:18;;;;;;;;;;;12.40;93.10;;;;;;5113233;28;19923;-65
2022/01/25 07:26:43;;;;;;;;;;;12.20;93.10;;;;;;5114991;28;20377;-65
2022/01/25 07:29:09;;;;;;;;;;;12.30;93.10;;;;;;5110576;28;19968;-64
2022/01/25 07:31:35;;;;;;;;;;;12.50;93.20;;;;;;5095375;28;19924;-64
2022/01/25 07:34:00;;;;;;;;;;;12.50;93.20;;;;;;5106516;28;20372;-64
2022/01/25 07:36:26;;;;;;;;;;;12.70;93.20;;;;;;5113022;28;19931;-66
2022/01/25 07:38:52;;;;;;;;;;;12.60;93.20;;;;;;5115616;28;19979;-66
2022/01/25 07:41:17;;;;;;;;;;;12.50;93.10;;;;;;5114837;28;20321;-66
2022/01/25 07:43:43;;;;;;;;;;;12.30;93.10;;;;;;5110853;28;20289;-67
2022/01/25 07:46:09;;;;;;;;;;;12.30;93.10;;;;;;5102357;28;19934;-66
2022/01/25 07:48:35;;;;;;;;;;;12.60;93.10;;;;;;5095027;28;20343;-66
2022/01/25 07:51:00;;;;;;;;;;;12.50;93.10;;;;;;5108465;28;20010;-66
2022/01/25 07:53:26;;;;;;;;;;;12.30;93.00;;;;;;5106715;28;19924;-66
2022/01/25 07:55:52;;;;;;;;;;;12.30;93.00;;;;;;5104589;28;19976;-66
2022/01/25 07:58:17;;;;;;;;;;;12.50;93.10;;;;;;5113523;28;19920;-66
2022/01/25 08:00:43;;;;;;;;;;;12.50;93.10;;;;;;5114658;28;19930;-66
2022/01/25 08:03:09;;;;;;;;;;;12.50;93.10;;;;;;5111367;28;20373;-66
2022/01/25 08:05:34;;;;;;;;;;;;;;;;;;5106642;28;19924;-65
2022/01/25 08:08:01;;;;;;;;;;;12.50;93.00;;;;;;5094308;28;19924;-63
2022/01/25 08:10:27;;;;;;;;;;;;;;;;;;5109598;28;19928;-63
2022/01/25 08:12:53;;;;;;;;;;;12.50;93.00;;;;;;5106809;28;20030;-62
2022/01/25 08:15:18;;;;;;;;;;;12.50;93.00;;;;;;5113113;28;20432;-61
2022/01/25 08:17:44;;;;;;;;;;;12.50;93.00;;;;;;5104059;28;19970;-60
2022/01/25 08:20:10;;;;;;;;;;;12.60;93.10;;;;;;5094223;28;20385;-61
2022/01/25 08:22:35;;;;;;;;;;;12.40;93.00;;;;;;5093951;28;20347;-61
2022/01/25 08:25:02;;;;;;;;;;;12.70;93.10;;;;;;5105024;28;19946;-61
2022/01/25 08:27:27;;;;;;;;;;;12.50;93.00;;;;;;5111265;28;20061;-61
2022/01/25 08:29:53;;;;;;;;;;;12.50;93.00;;;;;;5113699;28;20006;-62
2022/01/25 08:32:19;;;;;;;;;;;12.70;93.10;;;;;;5114171;28;20385;-61
2022/01/25 08:34:45;;;;;;;;;;;12.50;93.00;;;;;;5113762;28;19931;-61
2022/01/25 08:37:11;;;;;;;;;;;;;;;;;;5114599;28;20257;-62
2022/01/25 08:39:36;;;;;;;;;;;12.60;93.10;;;;;;5105795;28;19923;-64
2022/01/25 08:42:03;;;;;;;;;;;12.50;93.20;;;;;;5113752;28;19923;-60
2022/01/25 08:44:29;;;;;;;;;;;12.70;93.20;;;;;;5114524;28;19935;-60
2022/01/25 08:46:54;;;;;;;;;;;12.50;93.10;;;;;;5114108;28;19920;-62
2022/01/25 08:49:21;;;;;;;;;;;12.30;93.10;;;;;;5114072;28;20010;-62
2022/01/25 08:51:48;;;;;;;;;;;12.60;93.10;;;;;;5114201;28;19984;-61
2022/01/25 08:54:14;;;;;;;;;;;12.60;93.10;;;;;;5114147;28;19920;-60
2022/01/25 08:56:41;;;;;;;;;;;12.40;93.10;;;;;;5114484;28;19931;-60
2022/01/25 08:59:07;;;;;;;;;;;12.40;93.00;;;;;;5113584;28;19920;-61
2022/01/25 09:01:33;;;;;;;;;;;12.50;93.00;;;;;;5114179;28;19928;-61
2022/01/25 09:04:00;;;;;;;;;;;12.40;93.00;;;;;;5113236;28;20049;-63
2022/01/25 09:06:26;;;;;;;;;;;12.70;93.10;;;;;;5114060;28;19924;-61
2022/01/25 09:08:53;;;;;;;;;;;12.50;93.00;;;;;;5114368;28;19924;-64
2022/01/25 09:11:18;;;;;;;;;;;12.60;93.00;;;;;;5113067;28;19973;-64
2022/01/25 09:13:44;;;;;;;;;;;12.60;93.00;;;;;;5113946;28;19924;-63
2022/01/25 09:16:10;;;;;;;;;;;12.60;93.00;;;;;;5113971;28;19947;-64
2022/01/25 09:18:36;;;;;;;;;;;12.50;93.00;;;;;;5113977;28;19947;-62
2022/01/25 09:21:02;;;;;;;;;;;;;;;;;;5113387;28;19924;-64
2022/01/25 09:23:28;;;;;;;;;;;12.50;93.00;;;;;;5114262;28;19969;-64
2022/01/25 09:25:55;;;;;;;;;;;12.40;93.00;;;;;;5113880;28;20311;-65
2022/01/25 09:28:20;;;;;;;;;;;12.60;93.00;;;;;;5113866;28;19923;-66
2022/01/25 09:30:46;;;;;;;;;;;12.40;92.70;;;;;;5114007;28;19969;-65
2022/01/25 09:33:12;;;;;;;;;;;12.50;93.00;;;;;;5112246;28;19946;-65
2022/01/25 09:35:38;;;;;;;;;;;;;;;;;;5113175;28;20393;-66
2022/01/25 09:38:03;;;;;;;;;;;12.60;92.90;;;;;;5115584;28;19946;-66
2022/01/25 09:40:29;;;;;;;;;;;12.80;93.00;;;;;;5116774;28;20006;-67
2022/01/25 09:42:57;;;;;;;;;;;;;;;;;;5115993;28;19932;-61
2022/01/25 09:45:23;;;;;;;;;;;12.70;93.00;;;;;;5117288;28;20381;-61
2022/01/25 09:47:51;;;;;;;;;;;12.50;92.90;;;;;;5114343;28;19935;-64
2022/01/25 09:50:16;;;;;;;;;;;12.50;92.90;;;;;;5112155;28;20014;-66
2022/01/25 09:52:42;;;;;;;;;;;12.80;93.00;;;;;;5117100;28;20111;-67
2022/01/25 09:55:08;;;;;;;;;;;;;;;;;;5117525;28;20061;-64
2022/01/25 09:57:33;;;;;;;;;;;12.60;92.90;;;;;;5116407;28;19923;-64
2022/01/25 09:59:59;;;;;;;;;;;12.80;93.00;;;;;;5117108;28;19931;-65
2022/01/25 10:02:50;;;;;;;;;;;12.60;92.90;;;;;;5108221;28;19935;-65
2022/01/25 10:05:16;;;;;;;;;;;12.60;92.90;;;;;;5096947;28;19931;-65
2022/01/25 10:07:41;;;;;;;;;;;12.70;93.00;;;;;;5114438;28;19924;-66
2022/01/25 10:10:07;;;;;;;;;;;12.70;92.90;;;;;;5112046;28;19942;-64
2022/01/25 10:12:33;;;;;;;;;;;12.70;93.00;;;;;;5114612;28;19924;-65
2022/01/25 10:15:01;;;;;;;;;;;12.80;93.00;;;;;;5116293;28;19934;-63
2022/01/25 10:17:31;;;;;;;;;;;12.80;93.00;;;;;;5116941;28;20315;-64
2022/01/25 10:19:56;;;;;;;;;;;12.60;93.00;;;;;;5117167;28;19969;-65
2022/01/25 10:22:22;;;;;;;;;;;12.90;93.00;;;;;;5114569;28;20369;-66
2022/01/25 10:24:48;;;;;;;;;;;12.60;92.90;;;;;;5115389;27;20085;-66
2022/01/25 10:27:13;;;;;;;;;;;12.70;92.90;;;;;;5110189;28;20015;-60
2022/01/25 10:29:41;;;;;;;;;;;;;;;;;;5115882;28;19985;-63
2022/01/25 10:32:08;;;;;;;;;;;;;;;;;;5116516;28;19968;-61
2022/01/25 10:34:43;;;;;;;;;;;12.90;93.00;;;;;;5115765;28;20015;-61
2022/01/25 10:37:09;;;;;;;;;;;12.60;92.80;;;;;;5104997;28;20014;-65
2022/01/25 10:39:36;;;;;;;;;;;12.60;92.80;;;;;;5109089;28;19930;-65
2022/01/25 10:42:05;;;;;;;;;;;12.40;92.80;;;;;;5116078;28;19924;-64
2022/01/25 10:44:44;;;;;;;;;;;12.80;92.90;;;;;;5115391;28;19924;-65
2022/01/25 10:47:10;;;;;;;;;;;;;;;;;;5113709;28;20297;-66
2022/01/25 10:49:42;;;;;;;;;;;12.70;92.90;;;;;;5114659;28;19977;-64
2022/01/25 10:52:08;;;;;;;;;;;12.50;92.80;;;;;;5115200;28;20300;-64
2022/01/25 10:54:37;;;;;;;;;;;12.90;92.90;;;;;;5114545;28;19924;-64
2022/01/25 10:57:03;;;;;;;;;;;;;;;;;;5099344;28;19920;-66
2022/01/25 10:59:32;;;;;;;;;;;12.70;92.80;;;;;;5113827;28;19928;-64
2022/01/25 11:01:58;;;;;;;;;;;;;;;;;;5115771;28;20486;-62
2022/01/25 11:04:25;;;;;;;;;;;12.60;92.90;;;;;;5116264;27;19924;-64
2022/01/25 11:06:54;;;;;;;;;;;12.70;92.90;;;;;;5116131;27;19931;-65
2022/01/25 11:09:20;;;;;;;;;;;12.70;93.00;;;;;;5115874;28;20452;-66
2022/01/25 11:11:51;;;;;;;;;;;12.70;92.90;;;;;;5112877;28;19936;-61
2022/01/25 11:17:02;;;;;;;;;;;12.50;92.90;;;;;;5115819;28;19930;-61
2022/01/25 11:19:29;;;;;;;;;;;;;;;;;;5115975;28;19924;-64
2022/01/25 11:21:55;;;;;;;;;;;12.90;93.00;;;;;;5113830;28;19930;-64
2022/01/25 11:24:20;;;;;;;;;;;12.70;93.00;;;;;;5103246;28;20401;-61
2022/01/25 11:26:47;;;;;;;;;;;12.90;93.00;;;;;;5095390;28;19924;-63
2022/01/25 11:29:13;;;;;;;;;;;12.70;92.90;;;;;;5093505;28;20439;-64
2022/01/25 11:31:39;;;;;;;;;;;12.90;93.00;;;;;;5103378;28;19931;-63
2022/01/25 11:34:05;;;;;;;;;;;12.80;93.00;;;;;;5115636;28;20014;-64
2022/01/25 11:36:31;;;;;;;;;;;12.70;93.00;;;;;;5115326;28;20373;-65
2022/01/25 11:38:57;;;;;;;;;;;12.60;93.00;;;;;;5115530;28;19976;-67
2022/01/25 11:41:26;;;;;;;;;;;12.50;93.00;;;;;;5115427;28;20373;-65
2022/01/25 11:44:08;;;;;;;;;;;12.70;93.00;;;;;;5114431;28;19976;-65
2022/01/25 11:46:35;;;;;;;;;;;12.70;93.00;;;;;;5094969;28;19976;-65
2022/01/25 11:49:03;;;;;;;;;;;12.70;93.00;;;;;;5106922;28;19924;-65
2022/01/25 11:51:29;;;;;;;;;;;12.70;93.00;;;;;;5115316;28;19930;-64
2022/01/25 11:53:55;;;;;;;;;;;;;;;;;;5114631;28;20389;-66
2022/01/25 11:56:20;;;;;;;;;;;12.60;93.00;;;;;;5105207;28;19931;-64
2022/01/25 11:58:53;;;;;;;;;;;12.70;92.90;;;;;;5107767;28;19923;-66
2022/01/25 12:01:19;;;;;;;;;;;12.70;92.90;;;;;;5113741;28;19927;-61
2022/01/25 12:03:46;;;;;;;;;;;12.80;93.00;;;;;;5114435;28;19931;-66
2022/01/25 12:06:20;;;;;;;;;;;;;;;;;;5113834;28;20307;-66
2022/01/25 12:11:36;;;;;;;;;;;12.70;92.90;;;;;;5114127;28;19920;-66
2022/01/25 12:14:21;;;;;;;;;;;12.70;93.00;;;;;;5100471;28;19924;-66
2022/01/25 12:16:46;;;;;;;;;;;12.80;93.00;;;;;;5113424;28;19967;-66
2022/01/25 12:19:13;;;;;;;;;;;12.70;92.90;;;;;;5113457;28;19988;-66
2022/01/25 12:21:44;;;;;;;;;;;12.60;92.80;;;;;;5112861;28;19927;-66
2022/01/25 12:24:34;;;;;;;;;;;12.80;92.90;;;;;;5109019;28;19924;-66
2022/01/25 12:27:09;;;;;;;;;;;12.80;92.80;;;;;;5113165;28;19923;-66
2022/01/25 12:29:36;;;;;;;;;;;13.00;92.90;;;;;;5113633;28;19924;-67
2022/01/25 12:32:18;;;;;;;;;;;12.70;92.80;;;;;;5113852;28;19969;-66
2022/01/25 12:35:02;;;;;;;;;;;12.50;92.70;;;;;;5114588;28;19967;-66
2022/01/25 12:37:43;;;;;;;;;;;12.80;92.70;;;;;;5113430;28;19959;-66
2022/01/25 12:40:31;;;;;;;;;;;12.90;92.70;;;;;;5111427;28;19924;-67
2022/01/25 12:43:07;;;;;;;;;;;12.80;92.70;;;;;;5094261;28;20028;-67
2022/01/25 12:45:36;;;;;;;;;;;12.70;92.70;;;;;;5103533;28;19924;-66
2022/01/25 12:48:02;;;;;;;;;;;;;;;;;;5114231;28;20422;-66
2022/01/25 12:50:28;;;;;;;;;;;12.90;92.70;;;;;;5113475;28;20339;-66
2022/01/25 12:52:54;;;;;;;;;;;12.80;92.50;;;;;;5111218;28;20015;-66
2022/01/25 12:55:24;;;;;;;;;;;12.80;92.70;;;;;;5113384;28;20002;-66
2022/01/25 12:57:50;;;;;;;;;;;13.00;92.70;;;;;;5113380;28;20426;-66
2022/01/25 13:00:16;;;;;;;;;;;12.70;92.60;;;;;;5112602;28;19924;-66
2022/01/25 13:02:42;;;;;;;;;;;12.60;92.60;;;;;;5113563;28;19924;-66
2022/01/25 13:05:08;;;;;;;;;;;;;;;;;;5112690;28;19931;-66
2022/01/25 13:07:33;;;;;;;;;;;12.70;92.70;;;;;;5114216;28;19924;-64
2022/01/25 13:09:59;;;;;;;;;;;12.80;92.70;;;;;;5113859;28;20312;-66
2022/01/25 13:12:33;;;;;;;;;;;12.70;92.70;;;;;;5112256;28;19935;-66
2022/01/25 13:15:15;;;;;;;;;;;;;;;;;;5117051;28;19939;-66
2022/01/25 13:17:41;;;;;;;;;;;12.80;92.70;;;;;;5117636;27;20193;-66
2022/01/25 13:20:07;;;;;;;;;;;12.60;92.70;;;;;;5117844;28;20010;-67
2022/01/25 13:22:38;;;;;;;;;;;12.90;92.80;;;;;;5112814;28;19923;-66
2022/01/25 13:27:34;;;;;;;;;;;12.70;92.70;;;;;;5116472;28;19993;-67
2022/01/25 13:32:46;;;;;;;;;;;12.80;92.90;;;;;;5117577;28;19927;-67
2022/01/25 13:35:31;;;;;;;;;;;12.60;92.90;;;;;;5117655;28;19924;-67
2022/01/25 13:38:02;;;;;;;;;;;12.50;93.00;;;;;;5117619;28;19977;-67
2022/01/25 13:40:35;;;;;;;;;;;12.90;93.10;;;;;;5116359;28;20381;-66
2022/01/25 13:46:05;;;;;;;;;;;12.70;93.10;;;;;;5094906;28;19931;-67
2022/01/25 13:48:31;;;;;;;;;;;12.60;93.10;;;;;;5090330;28;20398;-67
2022/01/25 13:50:59;;;;;;;;;;;12.60;93.10;;;;;;5083960;28;19924;-67
2022/01/25 13:53:27;;;;;;;;;;;12.80;93.10;;;;;;5076344;28;19928;-67
2022/01/25 13:55:55;;;;;;;;;;;;;;;;;;5094762;28;19924;-66
2022/01/25 13:58:23;;;;;;;;;;;12.60;93.10;;;;;;5094960;28;19971;-67
2022/01/25 14:00:49;;;;;;;;;;;12.60;93.10;;;;;;5094184;28;19928;-66
2022/01/25 14:03:15;;;;;;;;;;;12.60;93.10;;;;;;5094265;28;19978;-66
2022/01/25 14:05:41;;;;;;;;;;;12.70;93.00;;;;;;5091516;28;20011;-66
2022/01/25 14:08:07;;;;;;;;;;;;;;;;;;5093584;28;19928;-67
2022/01/25 14:10:33;;;;;;;;;;;12.60;93.00;;;;;;5092281;28;19924;-67
2022/01/25 14:23:55;;;;;;;;;;;;;;;;;;5115029;28;19924;-67
2022/01/25 14:26:21;;;;;;;;;;;12.60;93.10;;;;;;5115421;28;19920;-67
2022/01/25 14:29:06;;;;;;;;;;;12.70;93.20;;;;;;5099540;28;19947;-68
2022/01/25 14:31:35;;;;;;;;;;;12.80;93.20;;;;;;5075582;28;20067;-67
2022/01/25 14:34:01;;;;;;;;;;;12.80;93.20;;;;;;5073898;28;19925;-67
2022/01/25 14:36:27;;;;;;;;;;;12.50;93.10;;;;;;5074466;28;19948;-67
2022/01/25 14:38:54;;;;;;;;;;;12.80;93.20;;;;;;5074470;28;19931;-67
2022/01/25 14:41:22;;;;;;;;;;;12.40;93.10;;;;;;5059140;28;19975;-68
2022/01/25 14:43:52;;;;;;;;;;;12.80;93.20;;;;;;5068426;28;19925;-67
2022/01/25 14:46:21;;;;;;;;;;;12.50;93.10;;;;;;5075643;28;19928;-67
2022/01/25 14:48:48;;;;;;;;;;;;;;;;;;5073715;28;19947;-67
2022/01/25 14:51:13;;;;;;;;;;;12.50;93.10;;;;;;5070224;28;19925;-67
2022/01/25 14:53:43;;;;;;;;;;;12.70;93.20;;;;;;5054281;28;19931;-67
2022/01/25 14:56:11;;;;;;;;;;;12.80;93.20;;;;;;5073444;28;19935;-67
2022/01/25 15:01:19;;;;;;;;;;;12.60;93.20;;;;;;5073630;28;19928;-67
2022/01/25 15:03:45;;;;;;;;;;;12.80;93.20;;;;;;5074781;28;19924;-67
2022/01/25 15:06:13;;;;;;;;;;;12.90;93.20;;;;;;5074454;28;20409;-67
2022/01/25 15:08:46;;;;;;;;;;;12.70;93.20;;;;;;5074647;28;19931;-67
2022/01/25 15:11:11;;;;;;;;;;;12.50;93.20;;;;;;5074500;28;19931;-67
2022/01/25 15:13:39;;;;;;;;;;;12.60;93.20;;;;;;5071427;28;20381;-64
2022/01/25 15:16:05;;;;;;;;;;;12.70;93.20;;;;;;5054979;28;19925;-67
2022/01/25 15:18:32;;;;;;;;;;;12.70;93.30;;;;;;5054969;28;20063;-66
2022/01/25 15:20:58;;;;;;;;;;;12.70;93.20;;;;;;5068631;28;19991;-68
2022/01/25 15:23:25;;;;;;;;;;;;;;;;;;5068006;28;20413;-67
2022/01/25 15:25:54;;;;;;;;;;;12.50;93.00;;;;;;5066238;28;20325;-65
2022/01/25 15:28:21;;;;;;;;;;;12.50;93.10;;;;;;5081180;28;19927;-65
2022/01/25 15:30:47;;;;;;;;;;;12.80;93.20;;;;;;5115447;28;19923;-64
2022/01/25 15:33:13;;;;;;;;;;;12.90;93.30;;;;;;5115545;28;19965;-64
2022/01/25 15:35:39;;;;;;;;;;;12.70;93.30;;;;;;5114905;28;20373;-66
2022/01/25 15:38:06;;;;;;;;;;;12.80;93.30;;;;;;5096797;28;19923;-65
2022/01/25 15:40:33;;;;;;;;;;;12.50;93.00;;;;;;5115082;28;20408;-65
2022/01/25 15:42:59;;;;;;;;;;;12.60;93.20;;;;;;5114510;28;19976;-65
2022/01/25 15:45:28;;;;;;;;;;;12.60;93.30;;;;;;5114884;28;19920;-65
2022/01/25 15:47:54;;;;;;;;;;;12.40;93.20;;;;;;5114848;28;20404;-65
2022/01/25 15:50:21;;;;;;;;;;;12.80;93.30;;;;;;5114902;28;19923;-65
2022/01/25 15:52:47;;;;;;;;;;;12.60;93.20;;;;;;5114952;28;20053;-66
2022/01/25 15:55:13;;;;;;;;;;;12.70;93.20;;;;;;5114734;28;19988;-65
2022/01/25 15:57:38;;;;;;;;;;;12.70;93.30;;;;;;5115105;28;20369;-65
2022/01/25 16:00:04;;;;;;;;;;;12.70;93.30;;;;;;5114964;28;20328;-65
2022/01/25 16:02:30;;;;;;;;;;;12.60;93.10;;;;;;5115010;28;20281;-65
2022/01/25 16:04:56;;;;;;;;;;;12.80;92.90;;;;;;5114825;28;19931;-66
2022/01/25 16:07:22;;;;;;;;;;;12.70;93.30;;;;;;5114204;28;20408;-64
2022/01/25 16:09:53;;;;;;;;;;;12.60;93.20;;;;;;5112792;28;19928;-67
2022/01/25 16:12:19;;;;;;;;;;;12.60;93.20;;;;;;5114436;28;19927;-66
2022/01/25 16:14:45;;;;;;;;;;;12.70;93.30;;;;;;5113976;28;19924;-66
2022/01/25 16:17:11;;;;;;;;;;;12.50;93.20;;;;;;5113692;28;19945;-66
2022/01/25 16:19:36;;;;;;;;;;;12.40;93.20;;;;;;5095691;28;20331;-66
2022/01/25 16:22:02;;;;;;;;;;;12.60;93.20;;;;;;5114641;28;20361;-66
2022/01/25 16:24:28;;;;;;;;;;;12.60;93.20;;;;;;5113942;28;20743;-66
2022/01/25 16:26:54;;;;;;;;;;;12.20;93.10;;;;;;5113930;28;19981;-66
2022/01/25 16:29:20;;;;;;;;;;;;;;;;;;5107411;28;19976;-66
2022/01/25 16:31:46;;;;;;;;;;;12.60;93.30;;;;;;5113237;28;19931;-66
2022/01/25 16:34:12;;;;;;;;;;;12.30;93.30;;;;;;5114932;28;19920;-66
2022/01/25 16:36:38;;;;;;;;;;;12.50;93.30;;;;;;5114221;28;20457;-66
2022/01/25 16:39:05;;;;;;;;;;;12.90;93.40;;;;;;5112001;28;19931;-66
2022/01/25 16:41:31;;;;;;;;;;;;;;;;;;5103634;28;19924;-65